Cobb County-Mc Collum Field
KRYY : rendu visible

Aérodrome :











RETROUVEZ-NOUS SUR...

 
LOGIN :

S'inscrire | Disclaimer

   EN    FR    IT 

 









Légende :    VFR   VFR Marginal   IFR   IFR Intensif   IFR Très Intensif
Visi : 
Plafond : 
>= 8 km
>= 3000ft
5 à 8 km
1000 à 3000 ft
1500m à 5 km
500 à 1000 ft
800 à 1500m
200 à 500 ft
< 800m
< 200 ft
Symboles :   Orages  Brouillard  Fortes neiges  Fortes précipitations  Vent > 20 kt






- Altitude de l'aérodrome : 1040 ft


KRYY - Cobb County-Mc Collum Field

DERNIER METAR :
  • 141250Z 00000KT 10SM CLR 25/21 A3005 RMK AO2 SLP895 T02500211 PNO $

METARs EXPIRÉS :
  • 141150Z 26003KT 10SM CLR 23/20 A3002 RMK AO2 SLP887 6//// 7//// T02280200 10244 20206 53017 PNO $
  • 141050Z 00000KT 10SM CLR 21/19 A3000 RMK AO2 SLP879 T02110194 PNO $

TAF KRYY
Valide du 14 à 12h jusqu'au 15 à 12h UTC


141134Z 1412/1512 00000KT P6SM SKC
FM141500 30004KT P6SM FEW040
FM141800 26005KT P6SM SCT050
FM150200 VRB03KT P6SM FEW250
FIR KZTL / Amérique du Nord



MET'MAP, la Météo Aéronautique d'un coup d'oeil ! - Copyright ORBIFLY Décembre 2007 - Disclaimer

ORBIFLY MET'MAP TEAM :

Programmation & Développement : Alexandra Zaïnal
Sur une idée originale de : Baudouin d'Aumeries
Assistance à la programmation : Marc-Olivier Méhu
Soutien technique & logistique : Manuel Goepfert

Contact : metmap@orbifly.com




SOURCES & CREDITS :

   NOAA       Earth
Advisory